Time;durP1;ratioP1;P1;durP2;ratioP2;P2;SDS_P1;SDS_P2;PMS_P1;PMS_P2;Temp;Humidity;BMP_temperature;BMP_pressure;BME280_temperature;BME280_humidity;BME280_pressure;Samples;Min_cycle;Max_cycle;Signal;HPM_P1;HPM_P2
2023/10/19 00:00:47;;;;;;;;;1.00;1.00;;;;;17.07;100.00;98955.22;4927779;28;45698;-79
2023/10/19 00:03:13;;;;;;;;;0.67;0.67;;;;;17.10;100.00;98967.66;4942416;28;45192;-84
2023/10/19 00:05:45;;;;;;;;;1.00;1.00;;;;;17.14;100.00;98967.88;4942445;28;45249;-84
2023/10/19 00:08:20;;;;;;;;;1.00;1.00;;;;;17.06;100.00;98955.50;4931378;28;45499;-82
2023/10/19 00:11:02;;;;;;;;;0.00;0.00;;;;;17.09;100.00;98958.50;4929910;28;45886;-85
2023/10/19 00:13:29;;;;;;;;;3.00;1.00;;;;;17.14;100.00;98970.66;4948618;28;45809;-84
2023/10/19 00:15:57;;;;;;;;;2.00;0.67;;;;;17.16;100.00;98973.97;4944872;28;45590;-84
2023/10/19 00:18:24;;;;;;;;;2.67;1.00;;;;;17.17;100.00;98981.13;4945590;28;46145;-83
2023/10/19 00:23:35;;;;;;;;;1.00;1.00;;;;;17.17;100.00;98983.91;4945627;28;45429;-85
2023/10/19 00:26:15;;;;;;;;;1.00;1.00;;;;;17.23;100.00;98991.88;4937386;28;45627;-85
2023/10/19 00:28:40;;;;;;;;;2.50;1.00;;;;;17.21;100.00;98987.75;4923461;28;45863;-85
2023/10/19 00:31:09;;;;;;;;;1.33;0.00;;;;;17.09;100.00;98969.59;4933151;28;45957;-84
2023/10/19 00:33:38;;;;;;;;;3.67;2.00;;;;;17.18;100.00;98982.78;4943526;28;46026;-86
2023/10/19 00:36:07;;;;;;;;;2.67;1.00;;;;;17.23;100.00;98983.56;4924566;28;47923;-85
2023/10/19 00:41:12;;;;;;;;;2.67;0.67;;;;;17.17;100.00;98975.59;4951840;28;45748;-84
2023/10/19 00:43:43;;;;;;;;;0.67;0.33;;;;;17.22;100.00;98976.34;4935863;28;45476;-83
2023/10/19 00:48:49;;;;;;;;;2.00;2.00;;;;;17.18;100.00;98949.56;4936567;28;45512;-84
2023/10/19 00:53:55;;;;;;;;;0.67;0.67;;;;;17.31;100.00;98964.63;4934159;28;45585;-84
2023/10/19 00:56:25;;;;;;;;;1.00;1.00;;;;;17.26;100.00;98946.09;4918997;28;46623;-82
2023/10/19 00:58:59;;;;;;;;;3.00;1.00;;;;;17.33;100.00;98946.56;4942229;28;45805;-84
2023/10/19 01:01:28;;;;;;;;;1.00;1.00;;;;;17.33;100.00;98940.22;4934411;28;45413;-83
2023/10/19 01:03:58;;;;;;;;;2.00;2.00;;;;;17.31;100.00;98948.81;4940450;28;45392;-83
2023/10/19 01:06:25;;;;;;;;;3.67;1.67;;;;;17.28;100.00;98950.22;4933588;28;47103;-85
2023/10/19 01:08:52;;;;;;;;;1.33;0.67;;;;;17.25;100.00;98936.16;4931046;28;45803;-84
2023/10/19 01:11:20;;;;;;;;;2.67;1.67;;;;;17.19;100.00;98931.81;4932523;28;45837;-84
2023/10/19 01:13:48;;;;;;;;;1.50;0.00;;;;;17.28;100.00;98932.78;4939202;28;46026;-83
2023/10/19 01:16:21;;;;;;;;;2.00;1.00;;;;;17.20;100.00;98925.97;4939681;28;46548;-84
2023/10/19 01:18:53;;;;;;;;;2.67;2.00;;;;;17.27;100.00;98931.13;4941178;28;45881;-84
2023/10/19 01:21:37;;;;;;;;;3.67;1.33;;;;;17.08;100.00;98895.09;4932505;28;45515;-85
2023/10/19 01:24:09;;;;;;;;;3.67;1.67;;;;;17.24;100.00;98917.88;4946153;28;45585;-83
2023/10/19 01:26:37;;;;;;;;;1.67;1.33;;;;;17.15;100.00;98903.88;4933820;28;45502;-82
2023/10/19 01:29:13;;;;;;;;;1.33;1.00;;;;;17.10;100.00;98884.56;4938130;28;45770;-83
2023/10/19 01:31:50;;;;;;;;;2.00;0.67;;;;;17.24;100.00;98904.03;4925379;28;45445;-82
2023/10/19 01:34:19;;;;;;;;;1.33;1.33;;;;;17.16;100.00;98877.00;4938810;28;46572;-84
2023/10/19 01:36:49;;;;;;;;;5.00;3.33;;;;;17.30;100.00;98905.59;4940667;28;46243;-84
2023/10/19 01:39:18;;;;;;;;;5.00;3.00;;;;;17.36;100.00;98898.06;4934046;28;45929;-87
2023/10/19 01:41:45;;;;;;;;;2.00;2.00;;;;;17.32;100.00;98883.97;4935869;28;45455;-84
2023/10/19 01:44:15;;;;;;;;;0.00;0.00;;;;;17.40;100.00;98890.78;4941182;28;45424;-82
2023/10/19 01:46:43;;;;;;;;;3.33;2.00;;;;;17.40;100.00;98890.78;4932898;28;46288;-84
2023/10/19 01:49:09;;;;;;;;;8.33;2.67;;;;;17.37;100.00;98875.59;4933115;28;45435;-78
2023/10/19 01:51:39;;;;;;;;;1.67;1.67;;;;;17.34;100.00;98864.28;4925440;28;45769;-79
2023/10/19 01:54:07;;;;;;;;;4.33;3.33;;;;;17.41;100.00;98873.03;4929388;28;46475;-79
2023/10/19 01:56:37;;;;;;;;;3.33;2.00;;;;;17.40;100.00;98863.09;4924324;28;45661;-78
2023/10/19 01:59:05;;;;;;;;;2.33;2.00;;;;;17.44;100.00;98870.50;4929316;28;45820;-80
2023/10/19 02:01:32;;;;;;;;;3.00;2.00;;;;;17.34;100.00;98842.94;4930807;28;45503;-79
2023/10/19 02:04:05;;;;;;;;;5.67;2.33;;;;;17.46;100.00;98865.47;4937904;28;45723;-79
2023/10/19 02:06:40;;;;;;;;;3.67;2.33;;;;;17.46;100.00;98862.69;4929910;28;45617;-84
2023/10/19 02:09:28;;;;;;;;;5.00;2.00;;;;;17.46;100.00;98861.88;4939699;28;45496;-83
2023/10/19 02:11:56;;;;;;;;;3.33;1.67;;;;;17.47;100.00;98861.56;4937850;28;45807;-85
2023/10/19 02:14:24;;;;;;;;;2.67;2.00;;;;;17.46;100.00;98839.69;4945714;28;45985;-83
2023/10/19 02:16:53;;;;;;;;;2.00;2.00;;;;;17.50;100.00;98840.75;4950235;28;45811;-84
2023/10/19 02:19:21;;;;;;;;;0.00;0.00;;;;;17.51;100.00;98836.03;4924537;28;45648;-77
2023/10/19 02:21:55;;;;;;;;;5.00;2.67;;;;;17.33;100.00;98799.72;4929901;28;46043;-79
2023/10/19 02:24:21;;;;;;;;;3.67;2.00;;;;;17.49;100.00;98819.69;4922608;28;45460;-78
2023/10/19 02:26:51;;;;;;;;;5.00;3.33;;;;;17.46;100.00;98815.56;4926897;28;46151;-78
2023/10/19 02:29:18;;;;;;;;;3.67;2.00;;;;;17.55;100.00;98817.66;4929413;28;45920;-78
2023/10/19 02:31:44;;;;;;;;;4.33;2.00;;;;;17.51;100.00;98816.63;4931926;28;45772;-77
2023/10/19 02:34:15;;;;;;;;;4.00;2.33;;;;;17.51;100.00;98813.84;4924106;28;45761;-78
2023/10/19 02:36:42;;;;;;;;;4.00;2.33;;;;;17.44;100.00;98803.13;4926689;28;45670;-77
2023/10/19 02:39:14;;;;;;;;;4.67;1.67;;;;;17.51;100.00;98814.66;4937100;28;45439;-85
2023/10/19 02:41:42;;;;;;;;;3.00;2.00;;;;;17.52;100.00;98821.06;4952887;28;45504;-83
2023/10/19 02:44:19;;;;;;;;;4.33;2.33;;;;;17.40;100.00;98800.16;4964600;28;45932;-85
2023/10/19 02:46:53;;;;;;;;;5.33;1.33;;;;;17.41;100.00;98810.13;4935340;28;45520;-84
2023/10/19 02:52:20;;;;;;;;;4.00;3.00;;;;;17.48;100.00;98829.13;4928162;28;45649;-83
2023/10/19 02:54:46;;;;;;;;;5.67;2.00;;;;;17.36;100.00;98790.78;4940779;28;45871;-83
2023/10/19 02:57:13;;;;;;;;;3.00;2.00;;;;;17.46;100.00;98812.00;4929503;28;45617;-83
2023/10/19 02:59:39;;;;;;;;;5.00;2.00;;;;;17.33;100.00;98776.75;4947078;28;45416;-83
2023/10/19 03:04:37;;;;;;;;;2.33;1.00;;;;;17.37;100.00;98795.22;4945718;28;45364;-83
2023/10/19 03:07:07;;;;;;;;;2.00;2.00;;;;;17.40;100.00;98802.13;4944028;28;45835;-85
2023/10/19 03:09:36;;;;;;;;;2.33;2.33;;;;;17.41;100.00;98803.75;4946986;28;45035;-85
2023/10/19 03:12:05;;;;;;;;;4.00;1.00;;;;;17.43;100.00;98802.31;4952235;28;45777;-84
2023/10/19 03:14:33;;;;;;;;;4.00;2.00;;;;;17.34;100.00;98793.06;4942726;28;46243;-84
2023/10/19 03:17:04;;;;;;;;;7.67;3.00;;;;;17.37;100.00;98799.94;4928286;28;45438;-83
2023/10/19 03:19:29;;;;;;;;;3.33;1.33;;;;;17.21;100.00;98774.44;4936423;28;45466;-83
2023/10/19 03:21:55;;;;;;;;;2.00;1.00;;;;;17.34;100.00;98795.03;4930399;28;45418;-84
2023/10/19 03:24:37;;;;;;;;;4.67;3.00;;;;;17.19;100.00;98773.91;4940670;28;45356;-84
2023/10/19 03:27:37;;;;;;;;;4.67;1.00;;;;;17.24;100.00;98777.41;4929333;28;47510;-82
2023/10/19 03:29:59;;;;;;;;;3.00;1.33;;;;;17.20;100.00;98770.84;4957365;28;45137;-84
2023/10/19 03:32:32;;;;;;;;;1.67;1.67;;;;;17.13;100.00;98761.28;4953597;28;45721;-84
2023/10/19 03:34:59;;;;;;;;;4.00;2.00;;;;;17.11;100.00;98761.56;4929827;28;45523;-84
2023/10/19 03:37:28;;;;;;;;;4.67;2.67;;;;;17.14;100.00;98779.53;4936568;28;45984;-86
2023/10/19 03:39:56;;;;;;;;;3.33;3.00;;;;;17.13;100.00;98783.44;4933206;28;45491;-86
2023/10/19 03:42:25;;;;;;;;;2.67;1.00;;;;;16.96;100.00;98759.88;4930254;28;45660;-84
2023/10/19 03:44:53;;;;;;;;;2.00;2.00;;;;;17.02;100.00;98768.91;4938495;28;45862;-85
2023/10/19 03:47:31;;;;;;;;;2.50;1.75;;;;;16.97;100.00;98758.72;4947225;28;45462;-84
2023/10/19 03:50:07;;;;;;;;;5.00;2.00;;;;;16.99;100.00;98761.19;4929550;28;45539;-84
2023/10/19 03:52:37;;;;;;;;;4.00;2.00;;;;;17.06;100.00;98770.78;4944236;28;45489;-84
2023/10/19 03:55:05;;;;;;;;;6.00;3.00;;;;;17.00;100.00;98751.78;4933990;28;47155;-85
2023/10/19 03:57:31;;;;;;;;;2.00;1.00;;;;;16.97;100.00;98744.88;4952662;28;45601;-84
2023/10/19 03:59:57;;;;;;;;;3.00;1.67;;;;;17.00;100.00;98749.00;4946653;28;45311;-84
2023/10/19 04:02:35;;;;;;;;;5.00;2.00;;;;;17.00;100.00;98746.25;4932715;28;45965;-86
2023/10/19 04:05:03;;;;;;;;;4.33;2.00;;;;;17.01;100.00;98740.41;4938462;28;45733;-85
2023/10/19 04:07:31;;;;;;;;;3.00;1.00;;;;;17.02;100.00;98733.75;4959028;28;46816;-84
2023/10/19 04:12:35;;;;;;;;;2.67;1.00;;;;;16.93;100.00;98713.38;4940039;28;44818;-85
2023/10/19 04:15:18;;;;;;;;;6.00;2.00;;;;;17.07;100.00;98733.66;4943495;28;45698;-83
2023/10/19 04:17:48;;;;;;;;;1.33;1.33;;;;;16.99;100.00;98714.13;4931246;28;46089;-85
2023/10/19 04:22:43;;;;;;;;;1.00;1.00;;;;;17.02;100.00;98713.50;4939428;28;45586;-84
2023/10/19 04:25:15;;;;;;;;;3.00;2.00;;;;;16.96;100.00;98704.50;4932823;28;45873;-83
2023/10/19 04:27:45;;;;;;;;;3.00;2.00;;;;;17.01;100.00;98711.88;4937189;28;48024;-85
2023/10/19 04:30:16;;;;;;;;;5.00;2.00;;;;;16.98;100.00;98716.06;4939880;28;44931;-86
2023/10/19 04:32:52;;;;;;;;;3.00;1.33;;;;;16.96;100.00;98707.25;4934355;28;45889;-85
2023/10/19 04:35:22;;;;;;;;;2.33;2.33;;;;;16.94;100.00;98713.06;4911115;28;45465;-86
2023/10/19 04:37:52;;;;;;;;;3.33;2.00;;;;;16.91;100.00;98702.59;4920351;28;45133;-84
2023/10/19 04:40:24;;;;;;;;;2.00;1.00;;;;;16.89;100.00;98692.97;4927827;28;45460;-86
2023/10/19 04:42:51;;;;;;;;;6.67;2.33;;;;;16.84;100.00;98684.69;4933054;28;46264;-85
2023/10/19 04:45:23;;;;;;;;;3.67;3.00;;;;;16.88;100.00;98691.31;4919110;28;46712;-86
2023/10/19 04:47:52;;;;;;;;;3.33;1.67;;;;;16.88;100.00;98683.00;4922284;28;46842;-85
2023/10/19 04:50:18;;;;;;;;;3.00;2.00;;;;;16.87;100.00;98689.66;4908341;28;45999;-85
2023/10/19 04:52:47;;;;;;;;;3.00;1.00;;;;;16.84;100.00;98681.94;4919963;28;45596;-87
2023/10/19 04:55:16;;;;;;;;;3.00;3.00;;;;;16.85;100.00;98687.16;4912417;28;45833;-92
2023/10/19 04:57:42;;;;;;;;;3.33;2.00;;;;;16.76;100.00;98667.66;4921382;28;47733;-84
2023/10/19 05:00:14;;;;;;;;;1.67;1.67;;;;;16.84;100.00;98670.84;4928442;28;45563;-82
2023/10/19 05:02:39;;;;;;;;;0.67;0.67;;;;;16.85;100.00;98666.97;4903239;28;45728;-82
2023/10/19 05:05:05;;;;;;;;;3.33;2.33;;;;;16.83;100.00;98658.97;4906779;28;45378;-83
2023/10/19 05:07:33;;;;;;;;;1.67;1.00;;;;;16.70;100.00;98635.63;4914525;28;47018;-83
2023/10/19 05:09:59;;;;;;;;;2.00;2.00;;;;;16.84;100.00;98657.84;4903925;28;45505;-79
2023/10/19 05:12:24;;;;;;;;;3.00;3.00;;;;;16.76;100.00;98648.25;4898884;28;45913;-79
2023/10/19 05:14:50;;;;;;;;;1.67;1.33;;;;;16.72;100.00;98625.09;4900642;28;45763;-82
2023/10/19 05:17:16;;;;;;;;;2.00;2.00;;;;;16.84;100.00;98648.72;4918748;28;45511;-80
2023/10/19 05:19:42;;;;;;;;;5.33;1.33;;;;;16.82;100.00;98648.19;4912231;28;45896;-84
2023/10/19 05:22:09;;;;;;;;;3.00;2.67;;;;;16.67;100.00;98625.16;4914223;28;45549;-79
2023/10/19 05:24:35;;;;;;;;;4.67;2.67;;;;;16.80;100.00;98644.91;4918350;28;45679;-79
2023/10/19 05:27:01;;;;;;;;;3.33;2.00;;;;;16.79;100.00;98643.28;4908002;28;46504;-80
2023/10/19 05:29:39;;;;;;;;;5.00;1.50;;;;;16.71;100.00;98619.88;4909650;28;44916;-83
2023/10/19 05:32:13;;;;;;;;;2.00;2.00;;;;;16.68;100.00;98612.97;4920225;28;45557;-79
2023/10/19 05:35:04;;;;;;;;;2.33;2.00;;;;;16.79;100.00;98612.81;4919058;28;45805;-84
2023/10/19 05:38:15;;;;;;;;;2.67;1.67;;;;;16.65;100.00;98577.63;4913810;28;47323;-85
2023/10/19 05:40:51;;;;;;;;;4.00;1.00;;;;;16.79;100.00;98590.66;4922522;28;45560;-80
2023/10/19 05:43:18;;;;;;;;;3.00;2.00;;;;;16.78;100.00;98570.47;4918544;28;45654;-79
2023/10/19 05:46:05;;;;;;;;;2.33;1.33;;;;;16.88;100.00;98591.66;4934270;28;45896;-84
2023/10/19 05:48:31;;;;;;;;;4.00;2.00;;;;;16.82;100.00;98565.16;4901080;28;45460;-82
2023/10/19 05:50:57;;;;;;;;;3.00;1.00;;;;;16.86;100.00;98577.28;4906977;28;45577;-82
2023/10/19 05:56:49;;;;;;;;;5.33;2.67;;;;;16.74;100.00;98559.19;4905101;28;45905;-82
2023/10/19 05:59:15;;;;;;;;;3.00;3.00;;;;;16.74;100.00;98566.69;4897345;28;45766;-79
2023/10/19 06:01:46;;;;;;;;;1.00;1.00;;;;;16.77;100.00;98568.84;4917045;28;46058;-80
2023/10/19 06:04:12;;;;;;;;;7.33;3.00;;;;;16.94;100.00;98598.72;4901060;28;46569;-82
2023/10/19 06:06:41;;;;;;;;;4.00;1.00;;;;;17.00;100.00;98605.81;4906693;28;45679;-87
2023/10/19 06:09:35;;;;;;;;;4.00;3.00;;;;;17.02;100.00;98611.91;4919225;28;46726;-84
2023/10/19 06:12:14;;;;;;;;;3.00;3.00;;;;;16.99;100.00;98584.81;4900273;28;45448;-82
2023/10/19 06:14:45;;;;;;;;;5.33;2.00;;;;;16.88;100.00;98595.22;4908815;28;45967;-78
2023/10/19 06:17:13;;;;;;;;;3.00;3.00;;;;;16.86;100.00;98577.28;4912103;28;46310;-80
2023/10/19 06:19:38;;;;;;;;;2.00;2.00;;;;;16.64;100.00;98545.50;4904145;28;46318;-80
2023/10/19 06:22:12;;;;;;;;;3.33;3.00;;;;;16.79;100.00;98572.09;4904101;28;45610;-80
2023/10/19 06:24:37;;;;;;;;;3.00;1.33;;;;;16.84;100.00;98590.56;4922448;28;45632;-79
2023/10/19 06:27:03;;;;;;;;;2.67;1.67;;;;;16.71;100.00;98568.09;4910705;28;45579;-80
2023/10/19 06:29:29;;;;;;;;;2.00;2.00;;;;;16.84;100.00;98588.66;4906986;28;46887;-80
2023/10/19 06:31:55;;;;;;;;;3.67;3.00;;;;;16.75;100.00;98571.91;4909707;28;45594;-79
2023/10/19 06:34:20;;;;;;;;;4.00;2.00;;;;;16.87;100.00;98585.31;4901323;28;45784;-80
2023/10/19 06:36:46;;;;;;;;;4.67;3.00;;;;;16.72;100.00;98558.69;4906177;28;45815;-79
2023/10/19 06:39:13;;;;;;;;;3.00;2.00;;;;;16.91;100.00;98586.31;4904249;28;46143;-80
2023/10/19 06:41:39;;;;;;;;;4.67;3.33;;;;;16.90;100.00;98581.91;4899290;28;45721;-80
2023/10/19 06:44:05;;;;;;;;;1.67;1.67;;;;;16.86;100.00;98564.22;4908269;28;45736;-81
2023/10/19 06:46:31;;;;;;;;;4.33;3.00;;;;;16.98;100.00;98580.41;4904160;28;45558;-80
2023/10/19 06:49:17;;;;;;;;;7.33;2.33;;;;;16.98;100.00;98566.53;4913713;28;45706;-81
2023/10/19 06:52:04;;;;;;;;;1.00;1.00;;;;;17.09;100.00;98573.53;4892572;28;45565;-80
2023/10/19 07:01:50;;;;;;;;;5.00;3.00;;;;;16.95;100.00;98511.78;4807253;29;45865;-84
2023/10/19 08:03:16;;;;;;;;;4.67;2.67;;;;;17.94;100.00;98473.38;4809118;29;45632;-83
2023/10/19 08:05:53;;;;;;;;;5.33;5.00;;;;;18.03;100.00;98480.97;4806124;29;45503;-83
2023/10/19 08:08:44;;;;;;;;;;;;;;;;;;;;;
2023/10/19 08:11:43;;;;;;;;;4.67;2.00;;;;;18.42;100.00;98533.00;4908728;28;75545;-84
2023/10/19 08:14:39;;;;;;;;;4.00;1.00;;;;;18.35;100.00;98521.50;4890678;28;45771;-83
2023/10/19 08:17:34;;;;;;;;;;;;;;;;;;;;;
2023/10/19 08:20:32;;;;;;;;;1.00;1.00;;;;;18.18;100.00;98509.13;4901415;28;74149;-82
2023/10/19 08:23:07;;;;;;;;;1.00;1.00;;;;;18.36;100.00;98525.94;4895792;28;45862;-83
2023/10/19 08:25:36;;;;;;;;;2.00;2.00;;;;;18.32;100.00;98514.66;4891868;28;45743;-83
2023/10/19 08:28:06;;;;;;;;;2.00;2.00;;;;;18.25;100.00;98488.47;4919680;28;45560;-84
2023/10/19 08:30:35;;;;;;;;;2.00;2.00;;;;;18.48;100.00;98512.28;4896094;29;46275;-83
2023/10/19 08:33:08;;;;;;;;;1.33;1.33;;;;;18.33;100.00;98479.38;4915459;28;45583;-86
2023/10/19 08:35:35;;;;;;;;;2.00;2.00;;;;;18.68;100.00;98502.63;4895918;28;45759;-82
2023/10/19 08:38:04;;;;;;;;;2.33;0.67;;;;;18.75;100.00;98496.63;4899709;28;45897;-82
2023/10/19 08:40:30;;;;;;;;;4.00;1.67;;;;;19.03;100.00;98496.47;4910749;28;47353;-82
2023/10/19 08:43:04;;;;;;;;;5.00;2.00;;;;;19.21;100.00;98492.59;4918517;28;45799;-83
2023/10/19 08:45:34;;;;;;;;;2.67;1.00;;;;;19.08;100.00;98454.63;4897474;28;45831;-83
2023/10/19 08:48:01;;;;;;;;;2.00;2.00;;;;;19.48;100.00;98481.56;4914727;28;45766;-82
2023/10/19 08:50:31;;;;;;;;;2.00;2.00;;;;;19.34;100.00;98449.16;4914606;28;45723;-83
2023/10/19 08:52:59;;;;;;;;;1.00;1.00;;;;;19.63;100.00;98463.59;4894159;28;47143;-81
2023/10/19 08:55:43;;;;;;;;;1.75;1.75;;;;;19.63;100.00;98474.72;4907873;28;45847;-83
2023/10/19 08:58:16;;;;;;;;;2.50;2.50;;;;;19.69;100.00;98476.19;4914139;28;45847;-82
2023/10/19 09:01:06;;;;;;;;;4.00;3.00;;;;;19.70;100.00;98477.81;4916083;28;45728;-82
2023/10/19 09:03:33;;;;;;;;;1.50;1.00;;;;;19.76;100.00;98470.97;4910457;28;46879;-83
2023/10/19 09:06:23;;;;;;;;;5.00;2.67;;;;;19.63;100.00;98447.72;4930011;28;45567;-83
2023/10/19 09:09:09;;;;;;;;;3.33;2.67;;;;;19.78;100.00;98443.66;4904355;28;45646;-84
2023/10/19 09:14:46;;;;;;;;;2.33;1.33;;;;;20.03;100.00;98474.59;4883271;28;46338;-83
2023/10/19 09:17:21;;;;;;;;;2.00;1.00;;;;;19.76;100.00;98437.59;4911731;28;45763;-84
2023/10/19 09:19:50;;;;;;;;;1.25;1.25;;;;;19.87;100.00;98454.81;4914617;28;45427;-82
2023/10/19 09:22:18;;;;;;;;;0.00;0.00;;;;;19.94;100.00;98469.03;4901532;28;45544;-82
2023/10/19 09:24:45;;;;;;;;;1.00;1.00;;;;;19.90;100.00;98466.09;4914050;28;45461;-81
2023/10/19 09:27:12;;;;;;;;;1.00;1.00;;;;;19.89;100.00;98444.16;4898810;28;45510;-83
2023/10/19 09:29:45;;;;;;;;;2.00;1.75;;;;;20.32;100.00;98464.75;4921614;28;45565;-83
2023/10/19 09:32:13;;;;;;;;;4.00;1.00;;;;;20.95;100.00;98451.97;4890651;28;45947;-83
2023/10/19 09:34:40;;;;;;;;;0.00;0.00;;;;;22.31;100.00;98460.41;4887210;28;48343;-82
2023/10/19 09:37:06;;;;;;;;;1.75;1.25;;;;;23.40;100.00;98435.78;4891213;28;45787;-81
2023/10/19 09:39:35;;;;;;;;;1.75;1.50;;;;;24.41;100.00;98441.56;4890267;28;45881;-82
2023/10/19 09:42:06;;;;;;;;;4.75;1.00;;;;;25.02;100.00;98406.72;4892651;28;46099;-83
2023/10/19 09:44:43;;;;;;;;;1.00;1.00;;;;;25.88;100.00;98421.09;4899273;28;47301;-83
2023/10/19 09:47:12;;;;;;;;;2.00;1.00;;;;;26.46;100.00;98417.47;4915736;28;45549;-83
2023/10/19 09:49:40;;;;;;;;;2.00;0.75;;;;;26.79;100.00;98399.22;4899910;28;45656;-81
2023/10/19 09:52:07;;;;;;;;;2.25;1.25;;;;;27.35;100.00;98414.63;4910825;28;45812;-82
2023/10/19 09:55:15;;;;;;;;;2.50;1.00;;;;;27.16;100.00;98414.66;4921256;28;46438;-83
2023/10/19 09:57:53;;;;;;;;;2.50;1.00;;;;;27.43;100.00;98412.72;4899359;28;45458;-85
2023/10/19 10:00:25;;;;;;;;;2.00;1.25;;;;;27.42;100.00;98380.13;4920019;28;45738;-85
2023/10/19 10:03:32;;;;;;;;;1.00;1.00;;;;;27.52;100.00;98392.75;4917566;28;47215;-84
2023/10/19 10:06:05;;;;;;;;;1.00;1.00;;;;;27.49;100.00;98397.13;4905058;28;47073;-83
2023/10/19 10:08:48;;;;;;;;;0.50;0.50;;;;;27.67;100.00;98405.00;4903681;28;46056;-83
2023/10/19 10:11:30;;;;;;;;;1.00;1.00;;;;;27.87;100.00;98431.81;4907811;28;45837;-82
2023/10/19 10:13:58;;;;;;;;;0.00;0.00;;;;;27.69;100.00;98386.50;4914406;28;45539;-83
2023/10/19 10:16:34;;;;;;;;;1.00;1.00;;;;;28.03;100.00;98436.50;4891636;28;45875;-86
2023/10/19 10:19:00;;;;;;;;;2.20;1.00;;;;;27.63;100.00;98388.03;4893142;28;46215;-82
2023/10/19 10:21:27;;;;;;;;;2.25;1.00;;;;;27.71;100.00;98411.47;4895698;28;45685;-81
2023/10/19 10:24:00;;;;;;;;;1.00;1.00;;;;;27.57;100.00;98393.19;4905271;28;45582;-81
2023/10/19 10:26:29;;;;;;;;;1.00;1.00;;;;;27.63;100.00;98421.84;4910794;28;46426;-83
2023/10/19 10:29:22;;;;;;;;;1.00;1.00;;;;;27.30;100.00;98407.25;4917869;28;45553;-83
2023/10/19 10:31:49;;;;;;;;;3.00;1.50;;;;;27.29;100.00;98411.28;4921482;28;45556;-84
2023/10/19 10:34:33;;;;;;;;;2.50;1.25;;;;;27.07;100.00;98407.31;4909048;28;46389;-84
2023/10/19 10:37:08;;;;;;;;;1.00;1.00;;;;;26.86;100.00;98388.09;4912679;28;46086;-81
2023/10/19 10:39:36;;;;;;;;;0.20;0.20;;;;;26.67;100.00;98403.03;4912742;28;45478;-81
2023/10/19 10:42:09;;;;;;;;;3.00;2.75;;;;;26.37;100.00;98389.59;4915405;28;45917;-82
2023/10/19 10:44:41;;;;;;;;;1.00;1.00;;;;;26.14;100.00;98380.31;4912134;28;45515;-82
2023/10/19 10:47:24;;;;;;;;;1.50;0.50;;;;;25.95;100.00;98381.13;4885815;28;46265;-81
2023/10/19 10:50:00;;;;;;;;;0.75;0.75;;;;;25.54;100.00;98350.63;4916082;28;45879;-82
2023/10/19 10:52:35;;;;;;;;;0.50;0.50;;;;;25.64;100.00;98369.66;4908660;28;45960;-84
2023/10/19 10:55:11;;;;;;;;;1.00;1.00;;;;;25.37;100.00;98363.91;4896551;28;45843;-85
2023/10/19 10:57:37;;;;;;;;;2.00;2.00;;;;;25.23;100.00;98354.31;4901292;28;45577;-82
2023/10/19 11:00:09;;;;;;;;;1.00;1.00;;;;;24.98;100.00;98327.28;4904750;28;45730;-82
2023/10/19 11:02:59;;;;;;;;;3.00;1.50;;;;;24.68;100.00;98321.38;4893508;28;45792;-85
2023/10/19 11:05:35;;;;;;;;;0.50;0.00;;;;;24.49;100.00;98339.72;4926030;28;45916;-83
2023/10/19 11:08:26;;;;;;;;;;;;;;;;;;;;;
2023/10/19 11:11:05;;;;;;;;;2.25;2.25;;;;;23.87;100.00;98330.06;4890414;28;73000;-80
2023/10/19 11:13:34;;;;;;;;;0.75;0.75;;;;;23.88;100.00;98351.28;4903930;28;45521;-82
2023/10/19 11:16:01;;;;;;;;;1.50;0.75;;;;;23.55;100.00;98332.72;4901816;28;45724;-83
2023/10/19 11:18:39;;;;;;;;;2.00;1.50;;;;;23.47;100.00;98342.06;4919269;28;46321;-83
2023/10/19 11:21:10;;;;;;;;;3.00;1.75;;;;;23.41;100.00;98338.69;4907671;28;45766;-85
2023/10/19 11:23:53;;;;;;;;;4.00;2.75;;;;;23.47;100.00;98325.28;4925421;28;45449;-83
2023/10/19 11:26:21;;;;;;;;;1.00;1.00;;;;;23.43;100.00;98323.19;4919812;28;45956;-84
2023/10/19 11:28:56;;;;;;;;;4.00;1.00;;;;;23.41;100.00;98325.53;4904487;28;47296;-84
2023/10/19 11:31:26;;;;;;;;;0.00;0.00;;;;;23.35;100.00;98329.72;4916149;28;45765;-83
2023/10/19 11:33:53;;;;;;;;;1.75;0.25;;;;;23.23;100.00;98326.97;4912516;28;45862;-83
2023/10/19 11:36:20;;;;;;;;;2.00;1.00;;;;;23.18;100.00;98336.41;4902881;28;45997;-81
2023/10/19 11:38:47;;;;;;;;;2.50;0.00;;;;;22.85;100.00;98291.84;4913960;28;46668;-81
2023/10/19 11:41:13;;;;;;;;;0.25;0.25;;;;;23.01;100.00;98326.28;4899982;28;46703;-83
2023/10/19 11:43:40;;;;;;;;;2.50;1.00;;;;;22.87;100.00;98315.47;4912272;28;45752;-84
2023/10/19 11:46:06;;;;;;;;;2.00;1.00;;;;;22.77;100.00;98289.97;4900921;28;45925;-82
2023/10/19 11:48:33;;;;;;;;;1.00;0.00;;;;;23.04;100.00;98320.00;4888543;28;47961;-82
2023/10/19 11:51:00;;;;;;;;;2.25;1.00;;;;;23.09;100.00;98303.00;4905476;28;45926;-84
2023/10/19 11:53:25;;;;;;;;;3.00;0.50;;;;;23.36;100.00;98299.78;4890035;28;45469;-82
2023/10/19 11:55:51;;;;;;;;;0.50;0.50;;;;;23.44;100.00;98290.44;4914793;28;45606;-82
2023/10/19 11:58:17;;;;;;;;;2.00;1.00;;;;;23.57;100.00;98291.22;4895673;28;46057;-84
2023/10/19 12:00:48;;;;;;;;;0.00;0.00;;;;;23.39;100.00;98285.91;4910174;28;45362;-81
2023/10/19 12:03:14;;;;;;;;;3.75;2.00;;;;;23.48;100.00;98288.56;4910942;28;45793;-82
2023/10/19 12:05:42;;;;;;;;;0.00;0.00;;;;;23.47;100.00;98274.94;4904564;28;45898;-81
2023/10/19 12:08:07;;;;;;;;;1.25;1.00;;;;;23.47;100.00;98269.34;4936659;28;45524;-82
2023/10/19 12:10:35;;;;;;;;;1.25;1.25;;;;;23.68;100.00;98294.31;4903398;28;45463;-83
2023/10/19 12:13:02;;;;;;;;;1.25;1.00;;;;;23.63;100.00;98268.19;4897551;28;45784;-82
2023/10/19 12:15:28;;;;;;;;;2.00;2.00;;;;;23.46;100.00;98243.34;4894709;29;47023;-83
2023/10/19 12:17:54;;;;;;;;;1.00;0.00;;;;;23.58;100.00;98262.06;4895380;28;48062;-82
2023/10/19 12:20:21;;;;;;;;;1.00;0.00;;;;;23.40;100.00;98236.38;4911581;28;45544;-83
2023/10/19 12:22:47;;;;;;;;;2.50;1.00;;;;;23.63;100.00;98292.56;4909292;28;45525;-83
2023/10/19 12:25:14;;;;;;;;;1.00;1.00;;;;;23.57;100.00;98294.81;4891490;28;46077;-84
2023/10/19 12:27:42;;;;;;;;;2.00;1.00;;;;;23.37;100.00;98251.91;4914128;28;46604;-84
2023/10/19 12:30:19;;;;;;;;;0.50;0.50;;;;;23.43;100.00;98247.66;4907388;28;45547;-82
2023/10/19 12:32:45;;;;;;;;;0.00;0.00;;;;;23.66;100.00;98280.66;4912770;28;45616;-82
2023/10/19 12:35:13;;;;;;;;;1.00;1.00;;;;;23.69;100.00;98276.34;4895198;28;45690;-83
2023/10/19 12:37:46;;;;;;;;;2.00;0.75;;;;;23.67;100.00;98251.53;4918587;28;46774;-82
2023/10/19 12:40:35;;;;;;;;;0.25;0.25;;;;;23.76;100.00;98256.97;4914656;28;45849;-84
2023/10/19 12:43:07;;;;;;;;;0.25;0.25;;;;;23.70;100.00;98244.38;4931157;28;45812;-82
2023/10/19 12:45:36;;;;;;;;;0.00;0.00;;;;;23.34;100.00;98219.03;4896826;28;45424;-83
2023/10/19 12:48:06;;;;;;;;;1.00;1.00;;;;;23.35;100.00;98245.81;4903056;28;45761;-82
2023/10/19 12:50:34;;;;;;;;;2.25;0.00;;;;;23.23;100.00;98243.91;4902017;28;45438;-82
2023/10/19 12:53:00;;;;;;;;;3.50;1.00;;;;;23.12;100.00;98234.38;4913989;28;45879;-83
2023/10/19 12:55:30;;;;;;;;;2.00;0.00;;;;;22.99;100.00;98236.34;4915852;28;45895;-82
2023/10/19 12:57:57;;;;;;;;;1.00;1.00;;;;;22.66;100.00;98206.63;4907827;28;45802;-82
2023/10/19 13:00:26;;;;;;;;;1.50;1.00;;;;;22.84;100.00;98220.34;4909479;28;45943;-82
2023/10/19 13:03:03;;;;;;;;;1.00;1.00;;;;;22.79;100.00;98206.63;4907993;28;45741;-82
2023/10/19 13:05:33;;;;;;;;;0.00;0.00;;;;;22.80;100.00;98191.47;4931593;28;45814;-81
2023/10/19 13:08:01;;;;;;;;;0.00;0.00;;;;;23.03;100.00;98198.16;4907838;28;47558;-84
2023/10/19 13:10:33;;;;;;;;;0.00;0.00;;;;;23.09;100.00;98190.34;4915301;28;46021;-82
2023/10/19 13:13:06;;;;;;;;;0.50;0.50;;;;;23.20;100.00;98187.88;4923797;28;45823;-83
2023/10/19 13:15:37;;;;;;;;;0.25;0.25;;;;;23.10;100.00;98175.22;4900124;28;45577;-83
2023/10/19 13:18:05;;;;;;;;;0.00;0.00;;;;;23.11;100.00;98207.59;4895493;28;46182;-83
2023/10/19 13:20:36;;;;;;;;;0.00;0.00;;;;;22.95;100.00;98187.13;4905834;28;44928;-83
2023/10/19 13:23:23;;;;;;;;;1.25;1.00;;;;;22.83;100.00;98162.81;4919893;28;45406;-81